sensor_id;sensor_type;location;lat;lon;timestamp;pressure;altitude;pressure_sealevel;temperature;humidity
11985;BME280;6052;53.246;10.368;2023-07-30T00:01:14;100229.34;;;21.29;88.73
11985;BME280;6052;53.246;10.368;2023-07-30T00:03:46;100225.72;;;21.03;90.00
11985;BME280;6052;53.246;10.368;2023-07-30T00:06:15;100230.13;;;21.21;89.07
11985;BME280;6052;53.246;10.368;2023-07-30T00:08:45;100224.81;;;21.24;88.58
11985;BME280;6052;53.246;10.368;2023-07-30T00:11:14;100228.19;;;21.21;89.15
11985;BME280;6052;53.246;10.368;2023-07-30T00:13:46;100231.25;;;21.28;88.76
11985;BME280;6052;53.246;10.368;2023-07-30T00:16:15;100225.13;;;21.23;88.40
11985;BME280;6052;53.246;10.368;2023-07-30T00:18:45;100222.75;;;21.30;88.02
11985;BME280;6052;53.246;10.368;2023-07-30T00:21:14;100233.38;;;21.31;88.45
11985;BME280;6052;53.246;10.368;2023-07-30T00:23:44;100226.09;;;21.27;87.86
11985;BME280;6052;53.246;10.368;2023-07-30T00:26:14;100231.41;;;21.23;88.46
11985;BME280;6052;53.246;10.368;2023-07-30T00:28:46;100221.47;;;21.27;88.54
11985;BME280;6052;53.246;10.368;2023-07-30T00:31:16;100221.72;;;21.00;91.43
11985;BME280;6052;53.246;10.368;2023-07-30T00:33:45;100218.75;;;20.88;91.59
11985;BME280;6052;53.246;10.368;2023-07-30T00:36:14;100215.16;;;21.10;90.12
11985;BME280;6052;53.246;10.368;2023-07-30T00:38:44;100216.41;;;20.95;90.83
11985;BME280;6052;53.246;10.368;2023-07-30T00:41:13;100216.91;;;20.97;91.28
11985;BME280;6052;53.246;10.368;2023-07-30T00:43:43;100210.97;;;21.04;90.25
11985;BME280;6052;53.246;10.368;2023-07-30T00:46:15;100210.34;;;21.07;89.97
11985;BME280;6052;53.246;10.368;2023-07-30T00:48:45;100203.28;;;21.06;89.20
11985;BME280;6052;53.246;10.368;2023-07-30T00:51:15;100216.09;;;21.05;88.87
11985;BME280;6052;53.246;10.368;2023-07-30T00:53:45;100209.06;;;21.13;89.05
11985;BME280;6052;53.246;10.368;2023-07-30T00:56:15;100210.34;;;21.07;88.43
11985;BME280;6052;53.246;10.368;2023-07-30T00:58:48;100204.25;;;21.10;88.71
11985;BME280;6052;53.246;10.368;2023-07-30T01:01:20;100209.03;;;21.04;89.00
11985;BME280;6052;53.246;10.368;2023-07-30T01:03:50;100218.19;;;21.00;88.87
11985;BME280;6052;53.246;10.368;2023-07-30T01:06:19;100210.16;;;21.03;88.84
11985;BME280;6052;53.246;10.368;2023-07-30T01:08:50;100214.81;;;21.03;88.40
11985;BME280;6052;53.246;10.368;2023-07-30T01:11:20;100214.34;;;21.01;87.78
11985;BME280;6052;53.246;10.368;2023-07-30T01:13:49;100215.47;;;21.00;87.67
11985;BME280;6052;53.246;10.368;2023-07-30T01:16:22;100210.16;;;21.03;87.49
11985;BME280;6052;53.246;10.368;2023-07-30T01:18:52;100210.16;;;21.03;87.64
11985;BME280;6052;53.246;10.368;2023-07-30T01:21:23;100224.94;;;21.02;87.22
11985;BME280;6052;53.246;10.368;2023-07-30T01:23:53;100223.31;;;21.01;87.89
11985;BME280;6052;53.246;10.368;2023-07-30T01:26:26;100228.16;;;21.04;88.40
11985;BME280;6052;53.246;10.368;2023-07-30T01:28:58;100226.25;;;21.05;88.41
11985;BME280;6052;53.246;10.368;2023-07-30T01:31:31;100222.53;;;21.01;88.54
11985;BME280;6052;53.246;10.368;2023-07-30T01:34:03;100220.59;;;21.01;89.11
11985;BME280;6052;53.246;10.368;2023-07-30T01:36:35;100223.59;;;20.91;90.77
11985;BME280;6052;53.246;10.368;2023-07-30T01:39:05;100228.06;;;20.87;91.44
11985;BME280;6052;53.246;10.368;2023-07-30T01:41:35;100225.25;;;20.92;91.36
11985;BME280;6052;53.246;10.368;2023-07-30T01:44:05;100231.66;;;20.96;91.38
11985;BME280;6052;53.246;10.368;2023-07-30T01:46:34;100232.22;;;20.85;91.15
11985;BME280;6052;53.246;10.368;2023-07-30T01:49:03;100234.44;;;20.74;92.98
11985;BME280;6052;53.246;10.368;2023-07-30T01:51:35;100226.44;;;20.86;92.79
11985;BME280;6052;53.246;10.368;2023-07-30T01:54:05;100236.38;;;20.82;92.18
11985;BME280;6052;53.246;10.368;2023-07-30T01:56:34;100232.78;;;20.95;91.64
11985;BME280;6052;53.246;10.368;2023-07-30T01:59:04;100232.16;;;20.98;92.30
11985;BME280;6052;53.246;10.368;2023-07-30T02:01:33;100250.91;;;20.91;92.28
11985;BME280;6052;53.246;10.368;2023-07-30T02:04:04;100247.81;;;20.84;93.19
11985;BME280;6052;53.246;10.368;2023-07-30T02:06:36;100247.28;;;20.74;93.70
11985;BME280;6052;53.246;10.368;2023-07-30T02:09:05;100243.25;;;20.71;94.98
11985;BME280;6052;53.246;10.368;2023-07-30T02:11:34;100240.81;;;20.70;94.59
11985;BME280;6052;53.246;10.368;2023-07-30T02:14:04;100248.41;;;20.81;94.07
11985;BME280;6052;53.246;10.368;2023-07-30T02:16:33;100238.00;;;20.44;96.45
11985;BME280;6052;53.246;10.368;2023-07-30T02:19:03;100238.31;;;20.82;95.63
11985;BME280;6052;53.246;10.368;2023-07-30T02:21:33;100234.44;;;20.74;95.62
11985;BME280;6052;53.246;10.368;2023-07-30T02:24:06;100242.13;;;20.72;94.99
11985;BME280;6052;53.246;10.368;2023-07-30T02:26:38;100249.06;;;20.78;94.95
11985;BME280;6052;53.246;10.368;2023-07-30T02:29:08;100242.78;;;20.69;96.12
11985;BME280;6052;53.246;10.368;2023-07-30T02:31:37;100240.09;;;20.86;95.36
11985;BME280;6052;53.246;10.368;2023-07-30T02:34:07;100236.94;;;20.62;96.70
11985;BME280;6052;53.246;10.368;2023-07-30T02:36:37;100235.03;;;20.63;96.16
11985;BME280;6052;53.246;10.368;2023-07-30T02:39:09;100234.34;;;20.57;96.69
11985;BME280;6052;53.246;10.368;2023-07-30T02:41:38;100238.16;;;20.78;95.38
11985;BME280;6052;53.246;10.368;2023-07-30T02:44:07;100240.59;;;20.88;95.31
11985;BME280;6052;53.246;10.368;2023-07-30T02:46:37;100236.53;;;20.77;94.84
11985;BME280;6052;53.246;10.368;2023-07-30T02:49:06;100231.69;;;20.66;96.29
11985;BME280;6052;53.246;10.368;2023-07-30T02:51:35;100236.50;;;20.69;95.75
11985;BME280;6052;53.246;10.368;2023-07-30T02:54:06;100242.88;;;20.56;96.78
11985;BME280;6052;53.246;10.368;2023-07-30T02:56:38;100245.44;;;20.30;97.54
11985;BME280;6052;53.246;10.368;2023-07-30T02:59:08;100249.56;;;20.50;97.45
11985;BME280;6052;53.246;10.368;2023-07-30T03:01:37;100246.63;;;20.68;95.85
11985;BME280;6052;53.246;10.368;2023-07-30T03:04:07;100253.94;;;20.59;95.91
11985;BME280;6052;53.246;10.368;2023-07-30T03:06:37;100245.59;;;20.56;96.98
11985;BME280;6052;53.246;10.368;2023-07-30T03:09:06;100248.09;;;20.74;95.38
11985;BME280;6052;53.246;10.368;2023-07-30T03:11:35;100255.72;;;20.64;95.68
11985;BME280;6052;53.246;10.368;2023-07-30T03:14:08;100253.31;;;20.62;95.34
11985;BME280;6052;53.246;10.368;2023-07-30T03:16:37;100261.31;;;20.59;95.52
11985;BME280;6052;53.246;10.368;2023-07-30T03:19:07;100255.28;;;20.70;94.38
11985;BME280;6052;53.246;10.368;2023-07-30T03:21:36;100262.50;;;20.75;94.28
11985;BME280;6052;53.246;10.368;2023-07-30T03:24:06;100261.72;;;20.74;93.70
11985;BME280;6052;53.246;10.368;2023-07-30T03:26:35;100265.72;;;20.68;94.66
11985;BME280;6052;53.246;10.368;2023-07-30T03:29:04;100256.38;;;20.61;94.58
11985;BME280;6052;53.246;10.368;2023-07-30T03:31:36;100263.88;;;20.55;94.33
11985;BME280;6052;53.246;10.368;2023-07-30T03:34:06;100260.41;;;20.63;93.91
11985;BME280;6052;53.246;10.368;2023-07-30T03:36:35;100264.88;;;20.59;94.32
11985;BME280;6052;53.246;10.368;2023-07-30T03:39:05;100260.25;;;20.68;92.86
11985;BME280;6052;53.246;10.368;2023-07-30T03:41:34;100261.34;;;20.67;93.55
11985;BME280;6052;53.246;10.368;2023-07-30T03:44:04;100274.22;;;20.67;93.63
11985;BME280;6052;53.246;10.368;2023-07-30T03:46:36;100273.53;;;20.61;93.43
11985;BME280;6052;53.246;10.368;2023-07-30T03:49:06;100275.66;;;20.64;93.75
11985;BME280;6052;53.246;10.368;2023-07-30T03:51:35;100279.75;;;20.53;93.98
11985;BME280;6052;53.246;10.368;2023-07-30T03:54:05;100279.63;;;20.58;93.62
11985;BME280;6052;53.246;10.368;2023-07-30T03:56:35;100282.94;;;20.47;94.19
11985;BME280;6052;53.246;10.368;2023-07-30T03:59:04;100281.22;;;20.59;93.63
11985;BME280;6052;53.246;10.368;2023-07-30T04:01:33;100285.41;;;20.57;93.07
11985;BME280;6052;53.246;10.368;2023-07-30T04:04:06;100284.72;;;20.51;93.39
11985;BME280;6052;53.246;10.368;2023-07-30T04:06:35;100288.59;;;20.59;93.22
11985;BME280;6052;53.246;10.368;2023-07-30T04:09:05;100292.31;;;20.63;92.66
11985;BME280;6052;53.246;10.368;2023-07-30T04:11:34;100286.50;;;20.56;93.33
11985;BME280;6052;53.246;10.368;2023-07-30T04:14:04;100291.97;;;20.56;93.16
11985;BME280;6052;53.246;10.368;2023-07-30T04:16:35;100295.78;;;20.55;92.89
11985;BME280;6052;53.246;10.368;2023-07-30T04:19:07;100292.59;;;20.53;93.12
11985;BME280;6052;53.246;10.368;2023-07-30T04:21:36;100284.75;;;20.60;92.52
11985;BME280;6052;53.246;10.368;2023-07-30T04:24:06;100300.47;;;20.54;92.69
11985;BME280;6052;53.246;10.368;2023-07-30T04:26:35;100291.28;;;20.50;93.41
11985;BME280;6052;53.246;10.368;2023-07-30T04:29:05;100292.31;;;20.63;92.76
11985;BME280;6052;53.246;10.368;2023-07-30T04:31:34;100296.19;;;20.40;93.63
11985;BME280;6052;53.246;10.368;2023-07-30T04:34:06;100298.91;;;20.40;93.69
11985;BME280;6052;53.246;10.368;2023-07-30T04:36:36;100307.34;;;20.52;93.75
11985;BME280;6052;53.246;10.368;2023-07-30T04:39:05;100298.00;;;20.44;93.80
11985;BME280;6052;53.246;10.368;2023-07-30T04:41:35;100305.00;;;20.37;94.10
11985;BME280;6052;53.246;10.368;2023-07-30T04:44:04;100303.88;;;20.38;93.99
11985;BME280;6052;53.246;10.368;2023-07-30T04:46:33;100302.59;;;20.35;95.21
11985;BME280;6052;53.246;10.368;2023-07-30T04:49:03;100304.75;;;20.25;95.90
11985;BME280;6052;53.246;10.368;2023-07-30T04:51:35;100302.41;;;20.32;95.61
11985;BME280;6052;53.246;10.368;2023-07-30T04:54:06;100296.38;;;20.21;95.85
11985;BME280;6052;53.246;10.368;2023-07-30T04:56:36;100298.84;;;20.31;96.04
11985;BME280;6052;53.246;10.368;2023-07-30T04:59:05;100305.63;;;20.34;96.53
11985;BME280;6052;53.246;10.368;2023-07-30T05:01:34;100307.97;;;20.27;96.70
11985;BME280;6052;53.246;10.368;2023-07-30T05:04:04;100295.78;;;20.24;96.90
11985;BME280;6052;53.246;10.368;2023-07-30T05:06:36;100305.78;;;20.37;95.61
11985;BME280;6052;53.246;10.368;2023-07-30T05:09:05;100300.22;;;20.42;95.62
11985;BME280;6052;53.246;10.368;2023-07-30T05:11:35;100305.25;;;20.27;97.78
11985;BME280;6052;53.246;10.368;2023-07-30T05:14:05;100295.31;;;20.31;98.28
11985;BME280;6052;53.246;10.368;2023-07-30T05:16:34;100302.41;;;20.32;98.05
11985;BME280;6052;53.246;10.368;2023-07-30T05:19:04;100297.91;;;20.36;97.54
11985;BME280;6052;53.246;10.368;2023-07-30T05:21:37;100295.44;;;20.26;99.01
11985;BME280;6052;53.246;10.368;2023-07-30T05:24:07;100294.09;;;20.15;100.00
11985;BME280;6052;53.246;10.368;2023-07-30T05:26:37;100309.28;;;19.94;100.00
11985;BME280;6052;53.246;10.368;2023-07-30T05:29:06;100301.34;;;20.19;100.00
11985;BME280;6052;53.246;10.368;2023-07-30T05:31:35;100299.94;;;19.86;100.00
11985;BME280;6052;53.246;10.368;2023-07-30T05:34:05;100319.44;;;20.02;100.00
11985;BME280;6052;53.246;10.368;2023-07-30T05:36:37;100302.78;;;20.17;100.00
11985;BME280;6052;53.246;10.368;2023-07-30T05:39:06;100312.00;;;20.07;100.00
11985;BME280;6052;53.246;10.368;2023-07-30T05:41:36;100312.69;;;20.13;100.00
11985;BME280;6052;53.246;10.368;2023-07-30T05:44:06;100303.88;;;20.16;100.00
11985;BME280;6052;53.246;10.368;2023-07-30T05:46:35;100308.22;;;20.03;100.00
11985;BME280;6052;53.246;10.368;2023-07-30T05:49:04;100302.31;;;20.23;100.00
11985;BME280;6052;53.246;10.368;2023-07-30T05:51:36;100307.78;;;20.23;100.00
11985;BME280;6052;53.246;10.368;2023-07-30T05:54:06;100310.56;;;20.10;100.00
11985;BME280;6052;53.246;10.368;2023-07-30T05:56:36;100307.47;;;20.25;100.00
11985;BME280;6052;53.246;10.368;2023-07-30T05:59:05;100301.03;;;20.21;100.00
11985;BME280;6052;53.246;10.368;2023-07-30T06:01:35;100308.59;;;20.24;100.00
11985;BME280;6052;53.246;10.368;2023-07-30T06:04:05;100319.63;;;20.19;100.00
11985;BME280;6052;53.246;10.368;2023-07-30T06:06:37;100321.03;;;20.16;100.00
11985;BME280;6052;53.246;10.368;2023-07-30T06:09:06;100316.09;;;20.40;100.00
11985;BME280;6052;53.246;10.368;2023-07-30T06:11:38;100308.72;;;20.19;100.00
11985;BME280;6052;53.246;10.368;2023-07-30T06:14:07;100307.72;;;20.37;100.00
11985;BME280;6052;53.246;10.368;2023-07-30T06:16:36;100310.47;;;20.37;100.00
11985;BME280;6052;53.246;10.368;2023-07-30T06:19:06;100318.06;;;20.26;100.00
11985;BME280;6052;53.246;10.368;2023-07-30T06:21:38;100320.97;;;20.30;100.00
11985;BME280;6052;53.246;10.368;2023-07-30T06:24:07;100322.66;;;20.39;100.00
11985;BME280;6052;53.246;10.368;2023-07-30T06:26:37;100312.06;;;20.38;100.00
11985;BME280;6052;53.246;10.368;2023-07-30T06:29:06;100316.81;;;20.54;100.00
11985;BME280;6052;53.246;10.368;2023-07-30T06:31:36;100312.16;;;20.11;100.00
11985;BME280;6052;53.246;10.368;2023-07-30T06:34:05;100318.25;;;19.94;100.00
11985;BME280;6052;53.246;10.368;2023-07-30T06:36:38;100317.44;;;20.07;100.00
11985;BME280;6052;53.246;10.368;2023-07-30T06:39:07;100323.16;;;20.19;100.00
11985;BME280;6052;53.246;10.368;2023-07-30T06:41:36;100322.56;;;20.31;100.00
11985;BME280;6052;53.246;10.368;2023-07-30T06:44:06;100319.03;;;20.08;100.00
11985;BME280;6052;53.246;10.368;2023-07-30T06:46:36;100317.03;;;20.00;100.00
11985;BME280;6052;53.246;10.368;2023-07-30T06:49:06;100312.00;;;19.94;100.00
11985;BME280;6052;53.246;10.368;2023-07-30T06:51:38;100321.66;;;20.13;100.00
11985;BME280;6052;53.246;10.368;2023-07-30T06:54:08;100326.06;;;20.23;100.00
11985;BME280;6052;53.246;10.368;2023-07-30T06:56:37;100322.09;;;20.29;100.00
11985;BME280;6052;53.246;10.368;2023-07-30T06:59:07;100334.13;;;20.28;100.00
11985;BME280;6052;53.246;10.368;2023-07-30T07:01:36;100320.78;;;20.26;100.00
11985;BME280;6052;53.246;10.368;2023-07-30T07:04:06;100325.69;;;20.38;100.00
11985;BME280;6052;53.246;10.368;2023-07-30T07:06:38;100331.66;;;20.18;100.00
11985;BME280;6052;53.246;10.368;2023-07-30T07:09:07;100325.31;;;20.31;100.00
11985;BME280;6052;53.246;10.368;2023-07-30T07:11:37;100338.41;;;20.20;100.00
11985;BME280;6052;53.246;10.368;2023-07-30T07:14:07;100328.50;;;20.24;100.00
11985;BME280;6052;53.246;10.368;2023-07-30T07:16:36;100326.56;;;20.25;100.00
11985;BME280;6052;53.246;10.368;2023-07-30T07:19:05;100334.38;;;20.18;100.00
11985;BME280;6052;53.246;10.368;2023-07-30T07:21:38;100325.38;;;20.17;100.00
11985;BME280;6052;53.246;10.368;2023-07-30T07:24:07;100333.00;;;20.29;100.00
11985;BME280;6052;53.246;10.368;2023-07-30T07:26:36;100338.47;;;20.29;100.00
11985;BME280;6052;53.246;10.368;2023-07-30T07:29:06;100328.41;;;20.38;100.00
11985;BME280;6052;53.246;10.368;2023-07-30T07:31:35;100325.81;;;20.33;100.00
11985;BME280;6052;53.246;10.368;2023-07-30T07:34:05;100335.22;;;20.49;100.00
11985;BME280;6052;53.246;10.368;2023-07-30T07:36:39;100338.41;;;20.20;100.00
11985;BME280;6052;53.246;10.368;2023-07-30T07:39:08;100331.44;;;20.36;100.00
11985;BME280;6052;53.246;10.368;2023-07-30T07:41:38;100322.78;;;20.34;100.00
11985;BME280;6052;53.246;10.368;2023-07-30T07:44:07;100333.44;;;20.44;100.00
11985;BME280;6052;53.246;10.368;2023-07-30T07:46:36;100334.66;;;20.38;100.00
11985;BME280;6052;53.246;10.368;2023-07-30T07:49:06;100336.09;;;20.36;100.00
11985;BME280;6052;53.246;10.368;2023-07-30T07:51:35;100336.44;;;20.65;100.00
11985;BME280;6052;53.246;10.368;2023-07-30T07:54:08;100331.72;;;20.79;100.00
11985;BME280;6052;53.246;10.368;2023-07-30T07:56:37;100338.66;;;20.85;100.00
11985;BME280;6052;53.246;10.368;2023-07-30T07:59:06;100335.69;;;20.73;100.00
11985;BME280;6052;53.246;10.368;2023-07-30T08:01:36;100333.84;;;20.82;100.00
11985;BME280;6052;53.246;10.368;2023-07-30T08:04:06;100331.28;;;20.85;100.00
11985;BME280;6052;53.246;10.368;2023-07-30T08:06:35;100324.53;;;20.83;100.00
11985;BME280;6052;53.246;10.368;2023-07-30T08:09:05;100325.00;;;21.07;100.00
11985;BME280;6052;53.246;10.368;2023-07-30T08:11:37;100324.38;;;21.10;100.00
11985;BME280;6052;53.246;10.368;2023-07-30T08:14:06;100323.59;;;21.26;100.00
11985;BME280;6052;53.246;10.368;2023-07-30T08:16:35;100327.53;;;21.51;100.00
11985;BME280;6052;53.246;10.368;2023-07-30T08:19:05;100332.47;;;21.32;100.00
11985;BME280;6052;53.246;10.368;2023-07-30T08:21:34;100320.91;;;21.35;100.00
11985;BME280;6052;53.246;10.368;2023-07-30T08:24:04;100334.72;;;21.30;99.42
11985;BME280;6052;53.246;10.368;2023-07-30T08:26:36;100339.72;;;21.36;98.55
11985;BME280;6052;53.246;10.368;2023-07-30T08:29:06;100330.41;;;21.37;97.05
11985;BME280;6052;53.246;10.368;2023-07-30T08:31:36;100335.72;;;21.42;97.25
11985;BME280;6052;53.246;10.368;2023-07-30T08:34:06;100327.22;;;21.52;96.81
11985;BME280;6052;53.246;10.368;2023-07-30T08:36:36;100328.22;;;21.65;96.86
11985;BME280;6052;53.246;10.368;2023-07-30T08:39:06;100323.38;;;21.62;95.95
11985;BME280;6052;53.246;10.368;2023-07-30T08:41:38;100327.31;;;21.78;96.13
11985;BME280;6052;53.246;10.368;2023-07-30T08:44:09;100319.59;;;21.80;95.13
11985;BME280;6052;53.246;10.368;2023-07-30T08:46:38;100321.34;;;21.84;95.42
11985;BME280;6052;53.246;10.368;2023-07-30T08:49:08;100323.94;;;21.98;96.04
11985;BME280;6052;53.246;10.368;2023-07-30T08:51:38;100322.47;;;21.92;94.46
11985;BME280;6052;53.246;10.368;2023-07-30T08:54:09;100323.63;;;21.91;94.00
11985;BME280;6052;53.246;10.368;2023-07-30T08:56:41;100314.47;;;21.95;93.68
11985;BME280;6052;53.246;10.368;2023-07-30T08:59:11;100311.56;;;22.17;94.67
11985;BME280;6052;53.246;10.368;2023-07-30T09:01:42;100328.28;;;22.16;93.43
11985;BME280;6052;53.246;10.368;2023-07-30T09:04:16;100325.69;;;22.11;91.53
11985;BME280;6052;53.246;10.368;2023-07-30T09:06:48;100322.50;;;22.00;90.11
11985;BME280;6052;53.246;10.368;2023-07-30T09:11:53;100334.25;;;22.09;90.09
11985;BME280;6052;53.246;10.368;2023-07-30T09:14:22;100334.56;;;22.08;90.66
11985;BME280;6052;53.246;10.368;2023-07-30T09:16:56;100334.56;;;22.16;91.38
11985;BME280;6052;53.246;10.368;2023-07-30T09:19:25;100339.56;;;22.23;90.56
11985;BME280;6052;53.246;10.368;2023-07-30T09:21:55;100339.38;;;22.02;90.41
11985;BME280;6052;53.246;10.368;2023-07-30T09:24:24;100333.28;;;22.14;90.55
11985;BME280;6052;53.246;10.368;2023-07-30T09:27:01;100329.22;;;22.28;89.92
11985;BME280;6052;53.246;10.368;2023-07-30T09:29:31;100329.72;;;22.05;89.49
11985;BME280;6052;53.246;10.368;2023-07-30T09:32:00;100338.75;;;22.48;91.68
11985;BME280;6052;53.246;10.368;2023-07-30T09:34:30;100328.28;;;22.33;88.49
11985;BME280;6052;53.246;10.368;2023-07-30T09:36:59;100338.28;;;22.20;86.27
11985;BME280;6052;53.246;10.368;2023-07-30T09:39:29;100336.34;;;22.29;86.11
11985;BME280;6052;53.246;10.368;2023-07-30T09:42:01;100338.41;;;22.24;86.24
11985;BME280;6052;53.246;10.368;2023-07-30T09:44:32;100344.84;;;22.11;86.33
11985;BME280;6052;53.246;10.368;2023-07-30T09:47:02;100349.84;;;22.26;86.43
11985;BME280;6052;53.246;10.368;2023-07-30T09:49:33;100339.72;;;22.26;87.02
11985;BME280;6052;53.246;10.368;2023-07-30T09:52:03;100344.84;;;22.36;88.71
11985;BME280;6052;53.246;10.368;2023-07-30T09:54:33;100343.53;;;22.42;87.48
11985;BME280;6052;53.246;10.368;2023-07-30T09:57:05;100346.59;;;22.41;87.05
11985;BME280;6052;53.246;10.368;2023-07-30T09:59:35;100343.09;;;22.32;86.43
11985;BME280;6052;53.246;10.368;2023-07-30T10:02:05;100342.25;;;22.40;88.21
11985;BME280;6052;53.246;10.368;2023-07-30T10:04:41;100340.81;;;22.42;88.56
11985;BME280;6052;53.246;10.368;2023-07-30T10:07:15;100350.34;;;22.28;86.75
11985;BME280;6052;53.246;10.368;2023-07-30T10:09:46;100348.38;;;22.20;85.86
11985;BME280;6052;53.246;10.368;2023-07-30T10:12:21;100358.22;;;22.38;85.50
11985;BME280;6052;53.246;10.368;2023-07-30T10:14:53;100353.84;;;22.28;85.47
11985;BME280;6052;53.246;10.368;2023-07-30T10:17:22;100359.50;;;22.32;85.27
11985;BME280;6052;53.246;10.368;2023-07-30T10:19:52;100363.50;;;22.26;85.47
11985;BME280;6052;53.246;10.368;2023-07-30T10:22:23;100362.06;;;22.28;84.21
11985;BME280;6052;53.246;10.368;2023-07-30T10:24:56;100360.59;;;22.31;84.49
11985;BME280;6052;53.246;10.368;2023-07-30T10:27:35;100363.66;;;22.21;85.66
11985;BME280;6052;53.246;10.368;2023-07-30T10:30:09;100376.53;;;22.37;86.12
11985;BME280;6052;53.246;10.368;2023-07-30T10:32:40;100370.63;;;22.27;84.17
11985;BME280;6052;53.246;10.368;2023-07-30T10:35:38;100370.75;;;22.30;85.24
11985;BME280;6052;53.246;10.368;2023-07-30T10:38:15;100358.38;;;22.24;85.17
11985;BME280;6052;53.246;10.368;2023-07-30T10:41:04;100367.72;;;22.32;86.11
11985;BME280;6052;53.246;10.368;2023-07-30T10:43:35;100359.47;;;22.23;85.09
11985;BME280;6052;53.246;10.368;2023-07-30T10:46:06;100369.78;;;22.26;85.32
11985;BME280;6052;53.246;10.368;2023-07-30T10:48:37;100362.56;;;22.22;84.97
11985;BME280;6052;53.246;10.368;2023-07-30T10:51:11;100365.31;;;22.22;85.36
11985;BME280;6052;53.246;10.368;2023-07-30T10:53:41;100370.13;;;22.08;84.65
11985;BME280;6052;53.246;10.368;2023-07-30T10:56:12;100364.50;;;22.13;84.36
11985;BME280;6052;53.246;10.368;2023-07-30T10:58:42;100368.31;;;21.95;83.98
11985;BME280;6052;53.246;10.368;2023-07-30T11:01:12;100372.03;;;22.07;84.23
11985;BME280;6052;53.246;10.368;2023-07-30T11:03:42;100374.78;;;21.99;84.80
11985;BME280;6052;53.246;10.368;2023-07-30T11:06:14;100379.25;;;21.95;85.54
11985;BME280;6052;53.246;10.368;2023-07-30T11:08:50;100379.28;;;22.12;85.29
11985;BME280;6052;53.246;10.368;2023-07-30T11:11:20;100380.56;;;22.06;83.79
11985;BME280;6052;53.246;10.368;2023-07-30T11:13:51;100381.38;;;22.06;84.04
11985;BME280;6052;53.246;10.368;2023-07-30T11:16:21;100374.28;;;22.14;84.76
11985;BME280;6052;53.246;10.368;2023-07-30T11:18:50;100381.38;;;22.15;84.78
11985;BME280;6052;53.246;10.368;2023-07-30T11:21:22;100374.25;;;21.97;84.34
11985;BME280;6052;53.246;10.368;2023-07-30T11:23:52;100369.94;;;21.96;85.12
11985;BME280;6052;53.246;10.368;2023-07-30T11:26:22;100371.72;;;22.00;84.99
11985;BME280;6052;53.246;10.368;2023-07-30T11:28:51;100369.31;;;22.24;85.16
11985;BME280;6052;53.246;10.368;2023-07-30T11:31:21;100373.00;;;22.28;85.20
11985;BME280;6052;53.246;10.368;2023-07-30T11:33:53;100368.97;;;22.26;84.89
11985;BME280;6052;53.246;10.368;2023-07-30T11:36:25;100380.06;;;22.21;84.92
11985;BME280;6052;53.246;10.368;2023-07-30T11:38:55;100371.25;;;22.24;83.80
11985;BME280;6052;53.246;10.368;2023-07-30T11:41:25;100377.66;;;22.11;82.23
11985;BME280;6052;53.246;10.368;2023-07-30T11:43:54;100375.91;;;22.15;82.94
11985;BME280;6052;53.246;10.368;2023-07-30T11:46:24;100368.66;;;22.19;82.91
11985;BME280;6052;53.246;10.368;2023-07-30T11:49:10;100359.66;;;22.10;82.36
11985;BME280;6052;53.246;10.368;2023-07-30T11:51:43;100353.84;;;22.20;83.69
11985;BME280;6052;53.246;10.368;2023-07-30T11:54:23;100363.50;;;22.26;83.38
11985;BME280;6052;53.246;10.368;2023-07-30T11:56:55;100352.41;;;22.31;83.25
11985;BME280;6052;53.246;10.368;2023-07-30T11:59:25;100362.56;;;22.56;83.57
11985;BME280;6052;53.246;10.368;2023-07-30T12:01:54;100373.16;;;22.40;81.95
11985;BME280;6052;53.246;10.368;2023-07-30T12:04:24;100352.59;;;22.34;80.25
11985;BME280;6052;53.246;10.368;2023-07-30T12:06:56;100358.22;;;22.38;79.27
11985;BME280;6052;53.246;10.368;2023-07-30T12:09:35;100364.84;;;22.46;78.85
11985;BME280;6052;53.246;10.368;2023-07-30T12:12:06;100359.31;;;22.28;77.74
11985;BME280;6052;53.246;10.368;2023-07-30T12:14:44;100360.66;;;22.48;78.12
11985;BME280;6052;53.246;10.368;2023-07-30T12:17:13;100355.31;;;22.34;78.92
11985;BME280;6052;53.246;10.368;2023-07-30T12:19:43;100362.72;;;22.34;78.66
11985;BME280;6052;53.246;10.368;2023-07-30T12:22:14;100352.28;;;22.45;77.66
11985;BME280;6052;53.246;10.368;2023-07-30T12:24:44;100348.69;;;22.44;77.23
11985;BME280;6052;53.246;10.368;2023-07-30T12:27:14;100354.50;;;22.34;76.51
11985;BME280;6052;53.246;10.368;2023-07-30T12:29:43;100350.34;;;22.45;76.27
11985;BME280;6052;53.246;10.368;2023-07-30T12:32:13;100341.00;;;22.55;76.67
11985;BME280;6052;53.246;10.368;2023-07-30T12:34:42;100348.06;;;22.56;75.92
11985;BME280;6052;53.246;10.368;2023-07-30T12:37:11;100337.59;;;22.66;77.15
11985;BME280;6052;53.246;10.368;2023-07-30T12:39:44;100338.56;;;22.62;75.49
11985;BME280;6052;53.246;10.368;2023-07-30T12:42:13;100330.19;;;22.67;75.98
11985;BME280;6052;53.246;10.368;2023-07-30T12:44:43;100333.41;;;22.69;75.89
11985;BME280;6052;53.246;10.368;2023-07-30T12:47:12;100328.53;;;22.83;76.02
11985;BME280;6052;53.246;10.368;2023-07-30T12:49:42;100343.25;;;22.61;72.60
11985;BME280;6052;53.246;10.368;2023-07-30T12:52:11;100334.34;;;22.73;71.96
11985;BME280;6052;53.246;10.368;2023-07-30T12:54:40;100326.78;;;22.78;71.79
11985;BME280;6052;53.246;10.368;2023-07-30T12:57:12;100337.44;;;22.63;71.49
11985;BME280;6052;53.246;10.368;2023-07-30T12:59:42;100326.13;;;22.81;72.29
11985;BME280;6052;53.246;10.368;2023-07-30T13:02:11;100324.34;;;22.85;72.53
11985;BME280;6052;53.246;10.368;2023-07-30T13:04:41;100329.97;;;22.80;71.70
11985;BME280;6052;53.246;10.368;2023-07-30T13:07:10;100322.53;;;22.89;71.97